createdAt,value
2023-04-05T00:09:54.886Z,-4.81
2023-04-05T00:19:58.142Z,-4.54
2023-04-05T00:30:00.219Z,-5.01
2023-04-05T00:40:02.108Z,-4.75
2023-04-05T00:50:04.432Z,-5.02
2023-04-05T01:00:09.845Z,-5.07
2023-04-05T01:10:18.057Z,-5.17
2023-04-05T01:20:20.895Z,-5.20
2023-04-05T01:30:28.529Z,-5.02
2023-04-05T01:40:31.762Z,-5.33
2023-04-05T01:50:33.678Z,-5.48
2023-04-05T02:00:35.641Z,-5.31
2023-04-05T02:10:39.841Z,-5.11
2023-04-05T02:20:50.713Z,-5.32
2023-04-05T02:30:52.843Z,-5.35
2023-04-05T02:40:55.572Z,-5.74
2023-04-05T02:50:57.570Z,-5.50
2023-04-05T03:01:07.581Z,-5.21
2023-04-05T03:11:10.634Z,-5.66
2023-04-05T03:21:12.644Z,-5.68
2023-04-05T03:31:14.697Z,-5.22
2023-04-05T03:41:16.670Z,-4.82
2023-04-05T03:51:19.256Z,-4.42
2023-04-05T04:01:21.662Z,-4.24
2023-04-05T04:11:23.635Z,-4.06
2023-04-05T04:21:27.567Z,-3.85
2023-04-05T04:31:29.523Z,-3.65
2023-04-05T04:41:38.560Z,-3.56
2023-04-05T04:51:40.807Z,-3.41
2023-04-05T05:01:45.818Z,-3.24
2023-04-05T05:11:47.798Z,-3.06
2023-04-05T05:22:15.737Z,-2.71
2023-04-05T05:32:17.867Z,-2.52
2023-04-05T05:42:27.558Z,-2.53
2023-04-05T05:52:31.961Z,-2.29
2023-04-05T06:02:47.076Z,-2.21
2023-04-05T06:12:49.250Z,-2.06
2023-04-05T06:22:55.227Z,-1.91
2023-04-05T06:32:57.665Z,-1.80
2023-04-05T06:43:02.044Z,-1.51
2023-04-05T06:53:04.958Z,-1.37
2023-04-05T07:03:07.017Z,-1.24
2023-04-05T07:13:34.002Z,-1.02
2023-04-05T07:23:43.913Z,-0.85
2023-04-05T07:33:45.963Z,-0.43
2023-04-05T07:43:48.006Z,0.03
2023-04-05T07:53:50.019Z,0.27
2023-04-05T08:03:52.008Z,0.31
2023-04-05T08:14:00.302Z,0.47
2023-04-05T08:24:05.129Z,0.63
2023-04-05T08:34:11.414Z,0.94
2023-04-05T08:44:31.509Z,0.94
2023-04-05T08:54:34.570Z,1.94
2023-04-05T09:04:40.796Z,1.75
2023-04-05T09:14:44.598Z,1.97
2023-04-05T09:24:51.384Z,2.01
2023-04-05T09:35:04.835Z,2.23
2023-04-05T09:45:15.326Z,2.17
2023-04-05T09:55:49.757Z,2.46
2023-04-05T10:05:58.953Z,2.66
2023-04-05T10:16:10.549Z,2.68
2023-04-05T10:26:29.405Z,2.95
2023-04-05T10:37:04.061Z,2.67
2023-04-05T10:47:10.816Z,2.50
2023-04-05T10:57:13.816Z,2.55
2023-04-05T11:07:18.167Z,2.55
2023-04-05T11:17:28.382Z,3.24
2023-04-05T11:27:37.872Z,3.78
2023-04-05T11:38:02.611Z,3.62
2023-04-05T11:48:10.230Z,3.58
2023-04-05T11:58:22.691Z,4.27
2023-04-05T12:08:48.656Z,4.70
2023-04-05T12:18:55.246Z,4.75
2023-04-05T12:29:04.650Z,4.63
2023-04-05T12:39:08.143Z,3.75
2023-04-05T12:49:16.284Z,3.07
2023-04-05T12:59:24.997Z,2.33
2023-04-05T13:09:27.562Z,2.24
2023-04-05T13:19:31.575Z,2.13
2023-04-05T13:29:34.561Z,2.36
2023-04-05T13:39:44.382Z,2.72
2023-04-05T13:49:50.804Z,3.48
2023-04-05T14:00:01.052Z,3.47
2023-04-05T14:10:06.410Z,3.45
2023-04-05T14:20:17.646Z,3.13
2023-04-05T14:30:26.540Z,3.22
2023-04-05T14:40:28.675Z,3.13
2023-04-05T14:50:36.085Z,2.99
2023-04-05T15:00:38.234Z,3.11
2023-04-05T15:10:43.152Z,3.22
2023-04-05T15:20:46.477Z,3.06
2023-04-05T15:30:51.476Z,2.98
2023-04-05T15:40:54.603Z,3.07
2023-04-05T15:51:08.619Z,2.47
2023-04-05T16:01:14.255Z,2.53
2023-04-05T16:11:18.421Z,2.58
2023-04-05T16:21:31.306Z,2.63
2023-04-05T16:31:36.019Z,2.50
2023-04-05T16:41:40.229Z,2.41
2023-04-05T16:51:44.340Z,2.36
2023-04-05T17:01:47.352Z,2.26
2023-04-05T17:11:51.722Z,2.19
2023-04-05T17:22:00.602Z,1.96
2023-04-05T17:32:16.989Z,1.89
2023-04-05T17:42:25.152Z,1.82
2023-04-05T17:52:31.643Z,1.75
2023-04-05T18:02:37.726Z,1.70
2023-04-05T18:12:56.644Z,1.56
2023-04-05T18:23:00.922Z,1.55
2023-04-05T18:33:10.714Z,1.49
2023-04-05T18:43:15.077Z,1.47
2023-04-05T18:53:17.171Z,1.49
2023-04-05T19:03:27.543Z,1.42
2023-04-05T19:13:31.286Z,1.31
2023-04-05T19:23:37.277Z,1.40
2023-04-05T19:33:39.463Z,1.34
2023-04-05T19:43:41.986Z,1.34
2023-04-05T19:53:48.431Z,1.25
2023-04-05T20:04:02.497Z,1.19
2023-04-05T20:14:11.311Z,1.16
2023-04-05T20:24:16.837Z,1.25
2023-04-05T20:34:31.279Z,1.14
2023-04-05T20:44:33.349Z,1.12
2023-04-05T20:54:36.287Z,1.06
2023-04-05T21:04:38.451Z,1.06
2023-04-05T21:14:40.456Z,0.96
2023-04-05T21:24:45.518Z,1.12
2023-04-05T21:34:47.496Z,1.27
2023-04-05T21:44:51.926Z,1.24
2023-04-05T21:54:53.860Z,1.22
2023-04-05T22:04:55.892Z,1.14
2023-04-05T22:14:57.934Z,1.04
2023-04-05T22:25:02.904Z,1.06
2023-04-05T22:35:11.398Z,0.99
2023-04-05T22:45:16.632Z,0.97
2023-04-05T22:55:19.750Z,0.97
2023-04-05T23:05:21.685Z,0.83
2023-04-05T23:15:29.543Z,0.96
2023-04-05T23:25:32.445Z,0.96
2023-04-05T23:35:34.384Z,0.95
2023-04-05T23:45:36.538Z,0.92
2023-04-05T23:55:42.101Z,0.92
